Time;durP1;ratioP1;P1;durP2;ratioP2;P2;SDS_P1;SDS_P2;PMS_P1;PMS_P2;Temp;Humidity;BMP_temperature;BMP_pressure;BME280_temperature;BME280_humidity;BME280_pressure;Samples;Min_cycle;Max_cycle;Signal;HPM_P1;HPM_P2
2023/05/28 00:01:30;;;;;;;19.33;4.75;;;;;;;;;;5065659;28;20109;-82
2023/05/28 00:03:56;;;;;;;17.52;5.22;;;;;;;;;;5063873;28;20051;-82
2023/05/28 00:06:22;;;;;;;17.00;5.00;;;;;;;;;;5083627;28;20052;-82
2023/05/28 00:08:48;;;;;;;23.63;5.50;;;;;;;;;;5083015;28;20077;-83
2023/05/28 00:11:14;;;;;;;23.92;5.50;;;;;;;;;;5085536;28;20099;-83
2023/05/28 00:13:40;;;;;;;19.20;5.05;;;;;;;;;;5080983;28;20036;-83
2023/05/28 00:16:07;;;;;;;14.55;4.90;;;;;;;;;;5083374;28;20040;-82
2023/05/28 00:18:33;;;;;;;17.67;4.80;;;;;;;;;;5085945;28;20541;-82
2023/05/28 00:21:00;;;;;;;21.50;5.57;;;;;;;;;;5084618;28;20036;-82
2023/05/28 00:23:26;;;;;;;18.95;6.03;;;;;;;;;;5065059;28;20142;-82
2023/05/28 00:25:52;;;;;;;16.48;5.43;;;;;;;;;;5067390;28;20542;-82
2023/05/28 00:28:18;;;;;;;16.55;4.70;;;;;;;;;;5067415;28;20028;-82
2023/05/28 00:30:45;;;;;;;23.15;5.53;;;;;;;;;;5089099;28;20573;-81
2023/05/28 00:33:11;;;;;;;28.02;5.60;;;;;;;;;;5050173;28;21035;-82
2023/05/28 00:35:38;;;;;;;18.42;4.88;;;;;;;;;;5065284;28;20042;-82
2023/05/28 00:38:04;;;;;;;17.88;5.57;;;;;;;;;;5085677;28;20040;-83
2023/05/28 00:40:30;;;;;;;17.92;4.93;;;;;;;;;;5085081;28;20040;-82
2023/05/28 00:42:57;;;;;;;20.08;5.13;;;;;;;;;;5070844;28;20095;-82
2023/05/28 00:45:23;;;;;;;18.73;5.20;;;;;;;;;;5082535;28;20052;-82
2023/05/28 00:47:49;;;;;;;22.02;5.38;;;;;;;;;;5068798;28;20035;-79
2023/05/28 00:50:16;;;;;;;20.05;5.07;;;;;;;;;;5076363;28;20048;-83
2023/05/28 00:52:44;;;;;;;18.85;5.03;;;;;;;;;;5055401;28;20032;-82
2023/05/28 00:55:14;;;;;;;21.40;5.85;;;;;;;;;;5068094;28;20040;-82
2023/05/28 00:57:41;;;;;;;16.35;5.22;;;;;;;;;;5086724;28;21861;-82
2023/05/28 01:00:08;;;;;;;19.02;4.97;;;;;;;;;;5103166;28;20032;-84
2023/05/28 01:02:35;;;;;;;20.63;5.55;;;;;;;;;;5085032;28;20141;-82
2023/05/28 01:05:01;;;;;;;16.85;4.60;;;;;;;;;;5087772;28;20039;-82
2023/05/28 01:07:28;;;;;;;21.00;4.63;;;;;;;;;;5085679;28;20036;-82
2023/05/28 01:09:55;;;;;;;21.88;5.45;;;;;;;;;;5084307;28;20040;-82
2023/05/28 01:12:23;;;;;;;17.75;5.80;;;;;;;;;;5086082;28;20036;-83
2023/05/28 01:14:50;;;;;;;20.50;5.07;;;;;;;;;;5084749;28;20063;-82
2023/05/28 01:17:16;;;;;;;17.40;5.07;;;;;;;;;;5085682;28;20051;-83
2023/05/28 01:19:46;;;;;;;17.63;4.78;;;;;;;;;;5084877;28;20100;-83
2023/05/28 01:22:15;;;;;;;26.77;6.30;;;;;;;;;;5084972;28;20495;-82
2023/05/28 01:24:41;;;;;;;22.15;5.78;;;;;;;;;;5097531;28;21945;-82
2023/05/28 01:27:08;;;;;;;21.30;4.88;;;;;;;;;;5082358;28;20040;-82
2023/05/28 01:29:34;;;;;;;16.60;4.93;;;;;;;;;;5048706;28;20056;-83
2023/05/28 01:32:01;;;;;;;18.58;5.20;;;;;;;;;;5067052;28;20081;-83
2023/05/28 01:34:27;;;;;;;12.25;4.65;;;;;;;;;;5068388;28;20044;-83
2023/05/28 01:36:53;;;;;;;16.63;4.97;;;;;;;;;;5077494;28;20036;-82
2023/05/28 01:39:20;;;;;;;18.60;4.65;;;;;;;;;;5085950;28;20381;-83
2023/05/28 01:41:47;;;;;;;19.85;5.32;;;;;;;;;;5100521;28;20412;-82
2023/05/28 01:44:16;;;;;;;16.52;5.13;;;;;;;;;;5046672;28;20081;-82
2023/05/28 01:46:43;;;;;;;18.52;5.82;;;;;;;;;;5075924;28;20064;-82
2023/05/28 01:49:10;;;;;;;19.33;5.05;;;;;;;;;;5092076;28;20052;-82
2023/05/28 01:51:36;;;;;;;21.55;5.80;;;;;;;;;;5058848;28;21475;-82
2023/05/28 01:54:02;;;;;;;23.13;4.90;;;;;;;;;;5068882;28;20060;-83
2023/05/28 01:56:29;;;;;;;15.40;5.25;;;;;;;;;;5056916;28;20055;-82
2023/05/28 01:58:55;;;;;;;14.75;4.65;;;;;;;;;;5073138;28;20040;-83
2023/05/28 02:01:27;;;;;;;17.23;5.15;;;;;;;;;;5072000;28;20735;-84
2023/05/28 02:03:54;;;;;;;17.10;4.88;;;;;;;;;;5050409;28;20618;-82
2023/05/28 02:06:20;;;;;;;28.88;6.07;;;;;;;;;;5068738;28;20043;-82
2023/05/28 02:08:46;;;;;;;20.67;5.72;;;;;;;;;;5051034;28;20048;-82
2023/05/28 02:11:12;;;;;;;21.63;5.63;;;;;;;;;;5039365;28;20524;-83
2023/05/28 02:13:39;;;;;;;14.88;5.22;;;;;;;;;;5071315;28;20089;-83
2023/05/28 02:16:06;;;;;;;27.05;5.40;;;;;;;;;;5066410;28;20056;-82
2023/05/28 02:18:32;;;;;;;22.10;5.53;;;;;;;;;;5067234;28;20122;-82
2023/05/28 02:20:58;;;;;;;17.40;5.68;;;;;;;;;;5051978;28;20046;-82
2023/05/28 02:23:25;;;;;;;15.77;5.10;;;;;;;;;;5070474;28;20438;-82
2023/05/28 02:25:51;;;;;;;17.45;5.55;;;;;;;;;;5053327;28;20051;-82
2023/05/28 02:28:17;;;;;;;17.88;5.15;;;;;;;;;;5054094;28;20144;-81
2023/05/28 02:30:43;;;;;;;19.95;4.70;;;;;;;;;;5084338;28;20055;-82
2023/05/28 02:33:09;;;;;;;16.95;5.10;;;;;;;;;;5054585;28;20651;-82
2023/05/28 02:35:35;;;;;;;25.38;6.22;;;;;;;;;;5065269;28;20036;-82
2023/05/28 02:38:01;;;;;;;19.38;5.00;;;;;;;;;;5072986;28;20151;-82
2023/05/28 02:40:28;;;;;;;24.20;5.85;;;;;;;;;;5067439;28;20044;-83
2023/05/28 02:42:54;;;;;;;21.42;6.00;;;;;;;;;;5073321;28;20093;-83
2023/05/28 02:45:20;;;;;;;17.13;4.82;;;;;;;;;;5047430;28;20042;-82
2023/05/28 02:47:46;;;;;;;19.25;5.70;;;;;;;;;;5063985;28;20048;-82
2023/05/28 02:50:12;;;;;;;20.70;5.57;;;;;;;;;;5085255;28;20059;-82
2023/05/28 02:52:38;;;;;;;17.95;5.00;;;;;;;;;;5081539;28;20067;-83
2023/05/28 02:55:05;;;;;;;21.77;5.70;;;;;;;;;;5080520;28;20054;-82
2023/05/28 02:57:31;;;;;;;18.58;5.43;;;;;;;;;;5085412;28;20052;-83
2023/05/28 02:59:57;;;;;;;20.05;6.63;;;;;;;;;;5084145;28;20062;-83
2023/05/28 03:02:24;;;;;;;17.10;5.50;;;;;;;;;;5086534;28;20044;-82
2023/05/28 03:04:50;;;;;;;21.13;5.43;;;;;;;;;;5066899;28;20048;-82
2023/05/28 03:07:16;;;;;;;19.70;5.13;;;;;;;;;;5081937;28;20043;-83
2023/05/28 03:09:42;;;;;;;15.52;4.55;;;;;;;;;;5064983;28;20048;-82
2023/05/28 03:12:08;;;;;;;15.60;5.10;;;;;;;;;;5082951;28;20054;-82
2023/05/28 03:14:34;;;;;;;16.85;5.55;;;;;;;;;;5067438;28;20666;-83
2023/05/28 03:17:00;;;;;;;20.85;5.28;;;;;;;;;;5083048;28;20082;-83
2023/05/28 03:19:27;;;;;;;21.83;5.68;;;;;;;;;;5098089;28;21486;-82
2023/05/28 03:21:53;;;;;;;20.25;5.30;;;;;;;;;;5079108;28;20051;-82
2023/05/28 03:24:19;;;;;;;17.80;5.35;;;;;;;;;;5045883;28;20555;-83
2023/05/28 03:26:45;;;;;;;20.77;5.47;;;;;;;;;;5074613;28;20041;-81
2023/05/28 03:29:11;;;;;;;19.88;5.00;;;;;;;;;;5044867;28;20043;-82
2023/05/28 03:31:45;;;;;;;19.70;4.75;;;;;;;;;;5059774;28;20044;-82
2023/05/28 03:34:11;;;;;;;20.40;5.82;;;;;;;;;;5070210;28;20040;-82
2023/05/28 03:36:40;;;;;;;21.17;5.30;;;;;;;;;;5069787;28;20043;-82
2023/05/28 03:39:06;;;;;;;13.00;5.07;;;;;;;;;;5056546;28;20070;-82
2023/05/28 03:41:32;;;;;;;14.98;5.00;;;;;;;;;;5054353;28;20054;-82
2023/05/28 03:43:59;;;;;;;17.77;5.28;;;;;;;;;;5068919;28;20047;-81
2023/05/28 03:46:25;;;;;;;15.15;4.93;;;;;;;;;;5066692;28;21680;-81
2023/05/28 03:48:51;;;;;;;12.77;4.60;;;;;;;;;;5051511;28;20042;-83
2023/05/28 03:51:17;;;;;;;18.38;4.70;;;;;;;;;;5032467;28;20229;-81
2023/05/28 03:53:43;;;;;;;16.10;4.45;;;;;;;;;;5070319;28;20032;-82
2023/05/28 03:56:09;;;;;;;18.38;4.47;;;;;;;;;;5070870;28;20070;-82
2023/05/28 03:58:35;;;;;;;16.75;5.35;;;;;;;;;;5072847;28;20457;-82
2023/05/28 04:01:01;;;;;;;12.85;4.55;;;;;;;;;;5072861;28;20116;-83
2023/05/28 04:03:27;;;;;;;15.73;4.78;;;;;;;;;;5069540;28;20047;-82
2023/05/28 04:05:54;;;;;;;18.33;4.95;;;;;;;;;;5072025;28;20766;-82
2023/05/28 04:08:20;;;;;;;16.50;4.82;;;;;;;;;;5048760;28;20039;-83
2023/05/28 04:10:46;;;;;;;18.60;5.85;;;;;;;;;;5050325;28;20054;-81
2023/05/28 04:13:12;;;;;;;15.18;4.78;;;;;;;;;;5089179;28;20089;-81
2023/05/28 04:15:41;;;;;;;18.38;5.30;;;;;;;;;;5058852;28;20511;-83
2023/05/28 04:18:07;;;;;;;21.35;5.20;;;;;;;;;;5073851;28;20857;-79
2023/05/28 04:20:35;;;;;;;16.42;4.53;;;;;;;;;;5049488;28;20055;-78
2023/05/28 04:23:01;;;;;;;20.23;5.63;;;;;;;;;;5069199;28;22857;-79
2023/05/28 04:25:28;;;;;;;12.82;4.72;;;;;;;;;;5070660;28;21655;-77
2023/05/28 04:27:54;;;;;;;13.35;4.90;;;;;;;;;;5050796;28;20048;-76
2023/05/28 04:30:23;;;;;;;15.13;5.32;;;;;;;;;;5068165;28;20054;-78
2023/05/28 04:32:53;;;;;;;15.02;4.78;;;;;;;;;;5052184;28;21600;-77
2023/05/28 04:35:21;;;;;;;17.30;5.13;;;;;;;;;;5066852;28;20620;-75
2023/05/28 04:37:48;;;;;;;12.27;5.00;;;;;;;;;;5069945;28;20044;-77
2023/05/28 04:40:14;;;;;;;16.02;4.78;;;;;;;;;;5080494;28;20048;-78
2023/05/28 04:42:41;;;;;;;14.30;5.05;;;;;;;;;;5053264;28;20059;-78
2023/05/28 04:45:08;;;;;;;13.13;4.47;;;;;;;;;;5074496;28;20036;-78
2023/05/28 04:47:35;;;;;;;13.27;4.88;;;;;;;;;;5069231;28;20036;-77
2023/05/28 04:50:04;;;;;;;16.30;4.97;;;;;;;;;;5084112;27;20164;-77
2023/05/28 04:52:32;;;;;;;23.30;4.70;;;;;;;;;;5070957;28;22036;-77
2023/05/28 04:54:58;;;;;;;22.27;5.47;;;;;;;;;;5070492;28;20084;-78
2023/05/28 04:57:25;;;;;;;17.65;4.90;;;;;;;;;;5070128;28;20511;-78
2023/05/28 04:59:51;;;;;;;17.77;4.68;;;;;;;;;;5047170;28;20087;-78
2023/05/28 05:02:18;;;;;;;19.42;4.65;;;;;;;;;;5048308;28;20044;-79
2023/05/28 05:04:45;;;;;;;15.90;4.50;;;;;;;;;;5064641;28;20092;-78
2023/05/28 05:07:15;;;;;;;11.25;4.70;;;;;;;;;;5050367;28;20067;-78
2023/05/28 05:09:42;;;;;;;16.83;4.55;;;;;;;;;;5071590;28;20394;-78
2023/05/28 05:12:08;;;;;;;12.90;4.47;;;;;;;;;;5068782;28;20721;-78
2023/05/28 05:14:35;;;;;;;12.88;4.07;;;;;;;;;;5068069;28;20517;-78
2023/05/28 05:17:02;;;;;;;18.15;5.93;;;;;;;;;;5064299;28;20416;-78
2023/05/28 05:19:28;;;;;;;13.95;5.20;;;;;;;;;;5060691;28;20135;-78
2023/05/28 05:21:54;;;;;;;16.65;5.20;;;;;;;;;;5064917;28;20484;-78
2023/05/28 05:24:20;;;;;;;17.05;5.13;;;;;;;;;;5065536;28;20055;-78
2023/05/28 05:26:47;;;;;;;18.75;6.32;;;;;;;;;;5069934;28;20051;-78
2023/05/28 05:29:13;;;;;;;14.82;5.80;;;;;;;;;;5067763;28;20055;-78
2023/05/28 05:31:39;;;;;;;15.25;5.22;;;;;;;;;;5068046;28;20048;-78
2023/05/28 05:34:05;;;;;;;12.95;5.13;;;;;;;;;;5053378;28;20089;-78
2023/05/28 05:36:32;;;;;;;18.95;5.63;;;;;;;;;;5066339;28;20065;-78
2023/05/28 05:38:58;;;;;;;12.77;5.25;;;;;;;;;;5064825;28;20068;-79
2023/05/28 05:41:26;;;;;;;14.38;5.38;;;;;;;;;;5065909;28;20391;-78
2023/05/28 05:43:52;;;;;;;17.10;5.03;;;;;;;;;;5069044;28;20040;-80
2023/05/28 05:46:18;;;;;;;15.02;5.43;;;;;;;;;;5063075;28;20048;-78
2023/05/28 05:48:44;;;;;;;11.68;4.63;;;;;;;;;;5045119;28;20039;-79
2023/05/28 05:51:16;;;;;;;10.98;4.07;;;;;;;;;;5063087;28;20052;-78
2023/05/28 05:53:42;;;;;;;11.60;4.68;;;;;;;;;;5066178;28;20047;-79
2023/05/28 05:56:09;;;;;;;14.43;4.85;;;;;;;;;;5047321;28;20075;-78
2023/05/28 05:58:35;;;;;;;8.60;3.53;;;;;;;;;;5051105;28;20048;-78
2023/05/28 06:01:01;;;;;;;10.82;4.47;;;;;;;;;;5048580;28;20048;-79
2023/05/28 06:03:27;;;;;;;14.98;4.82;;;;;;;;;;5052053;28;20063;-77
2023/05/28 06:05:55;;;;;;;11.25;3.58;;;;;;;;;;5069056;28;20172;-79
2023/05/28 06:08:21;;;;;;;11.35;4.13;;;;;;;;;;5069558;28;20410;-79
2023/05/28 06:10:47;;;;;;;16.02;4.75;;;;;;;;;;5070186;28;20043;-79
2023/05/28 06:13:14;;;;;;;12.68;4.85;;;;;;;;;;5070758;28;20131;-78
2023/05/28 06:15:41;;;;;;;11.50;4.25;;;;;;;;;;5040659;28;21708;-79
2023/05/28 06:18:07;;;;;;;14.65;4.60;;;;;;;;;;5067664;28;20040;-79
2023/05/28 06:20:33;;;;;;;16.23;4.28;;;;;;;;;;5049820;28;20044;-79
2023/05/28 06:22:59;;;;;;;14.63;4.40;;;;;;;;;;5068333;28;20054;-79
2023/05/28 06:25:25;;;;;;;11.35;4.70;;;;;;;;;;5057814;28;20044;-79
2023/05/28 06:27:51;;;;;;;12.95;4.43;;;;;;;;;;5029492;28;20404;-78
2023/05/28 06:30:17;;;;;;;13.45;4.20;;;;;;;;;;5063340;28;20503;-78
2023/05/28 06:32:44;;;;;;;15.27;4.38;;;;;;;;;;5063033;28;20043;-78
2023/05/28 06:35:10;;;;;;;14.30;4.25;;;;;;;;;;5044648;28;20886;-79
2023/05/28 06:37:37;;;;;;;17.40;4.85;;;;;;;;;;5062222;28;20044;-78
2023/05/28 06:40:06;;;;;;;16.45;4.63;;;;;;;;;;5046634;28;20516;-79
2023/05/28 06:42:32;;;;;;;11.50;3.83;;;;;;;;;;5062296;28;20044;-79
2023/05/28 06:44:59;;;;;;;12.18;4.00;;;;;;;;;;5049156;28;20051;-79
2023/05/28 06:47:25;;;;;;;10.50;3.92;;;;;;;;;;5065309;28;20036;-77
2023/05/28 06:49:51;;;;;;;13.60;3.72;;;;;;;;;;5065585;28;20450;-79
2023/05/28 06:52:19;;;;;;;10.27;3.95;;;;;;;;;;5078773;28;20044;-79
2023/05/28 06:54:45;;;;;;;12.13;4.00;;;;;;;;;;5047610;28;20495;-78
2023/05/28 06:57:11;;;;;;;9.68;4.10;;;;;;;;;;5067045;28;20078;-79
2023/05/28 06:59:37;;;;;;;7.60;2.90;;;;;;;;;;5044270;28;20052;-78
2023/05/28 07:02:03;;;;;;;7.93;3.50;;;;;;;;;;5029382;28;20391;-79
2023/05/28 07:04:30;;;;;;;11.18;3.53;;;;;;;;;;5063136;28;20187;-79
2023/05/28 07:06:56;;;;;;;8.40;3.42;;;;;;;;;;5043015;28;20632;-78
2023/05/28 07:09:22;;;;;;;9.05;3.90;;;;;;;;;;5069016;28;20475;-78
2023/05/28 07:11:48;;;;;;;11.93;3.80;;;;;;;;;;5050537;28;20036;-79
2023/05/28 07:14:14;;;;;;;11.85;3.80;;;;;;;;;;5049512;28;20039;-79
2023/05/28 07:16:40;;;;;;;6.72;3.17;;;;;;;;;;5065026;28;20048;-79
2023/05/28 07:19:06;;;;;;;8.18;3.45;;;;;;;;;;5064539;28;20167;-80
2023/05/28 07:21:32;;;;;;;7.88;3.33;;;;;;;;;;5067107;28;20055;-79
2023/05/28 07:23:59;;;;;;;8.18;3.45;;;;;;;;;;5030393;28;20084;-78
2023/05/28 07:26:26;;;;;;;9.70;3.30;;;;;;;;;;5066440;28;20036;-80
2023/05/28 07:28:52;;;;;;;9.43;3.33;;;;;;;;;;5066193;28;20072;-80
2023/05/28 07:31:20;;;;;;;11.00;3.53;;;;;;;;;;5067477;28;20062;-79
2023/05/28 07:33:46;;;;;;;7.55;3.50;;;;;;;;;;5065525;28;20680;-80
2023/05/28 07:36:13;;;;;;;10.73;3.50;;;;;;;;;;5066269;28;20067;-79
2023/05/28 07:38:39;;;;;;;9.35;3.33;;;;;;;;;;5064956;28;20795;-80
2023/05/28 07:41:05;;;;;;;7.38;3.03;;;;;;;;;;5045755;28;20058;-80
2023/05/28 07:43:31;;;;;;;8.40;3.95;;;;;;;;;;5065174;28;20039;-81
2023/05/28 07:45:57;;;;;;;15.00;3.83;;;;;;;;;;5049409;28;21279;-79
2023/05/28 07:48:23;;;;;;;9.48;3.15;;;;;;;;;;5063695;28;20047;-80
2023/05/28 07:50:49;;;;;;;9.07;3.40;;;;;;;;;;5043363;28;20517;-79
2023/05/28 07:53:17;;;;;;;8.82;3.50;;;;;;;;;;5044253;28;20047;-79
2023/05/28 07:55:43;;;;;;;11.68;4.00;;;;;;;;;;5067324;28;20083;-79
2023/05/28 07:58:11;;;;;;;10.00;3.20;;;;;;;;;;5025953;28;20068;-80
2023/05/28 08:00:38;;;;;;;10.02;3.58;;;;;;;;;;5063274;28;20099;-80
2023/05/28 08:03:04;;;;;;;14.63;4.75;;;;;;;;;;5061570;28;20782;-80
2023/05/28 08:05:30;;;;;;;10.15;4.07;;;;;;;;;;5066394;28;20429;-80
2023/05/28 08:07:57;;;;;;;10.88;4.15;;;;;;;;;;5044825;28;20040;-79
2023/05/28 08:10:23;;;;;;;10.43;4.00;;;;;;;;;;5069066;28;20779;-79
2023/05/28 08:12:50;;;;;;;10.70;4.88;;;;;;;;;;5051863;28;20047;-80
2023/05/28 08:15:16;;;;;;;9.95;4.25;;;;;;;;;;5065380;28;20048;-80
2023/05/28 08:17:42;;;;;;;9.57;4.40;;;;;;;;;;5065600;28;21341;-80
2023/05/28 08:20:09;;;;;;;9.23;4.40;;;;;;;;;;5048940;28;20054;-79
2023/05/28 08:22:36;;;;;;;10.82;4.40;;;;;;;;;;5056670;28;20034;-80
2023/05/28 08:25:06;;;;;;;10.77;4.20;;;;;;;;;;5058502;28;20155;-80
2023/05/28 08:27:32;;;;;;;13.32;4.75;;;;;;;;;;5063138;28;20129;-80
2023/05/28 08:30:00;;;;;;;12.30;4.47;;;;;;;;;;5066989;28;20044;-79
2023/05/28 08:32:26;;;;;;;8.48;4.15;;;;;;;;;;5062663;28;20040;-80
2023/05/28 08:34:58;;;;;;;14.80;5.13;;;;;;;;;;5051617;28;20088;-84
2023/05/28 08:37:27;;;;;;;38.72;6.05;;;;;;;;;;5057699;28;20072;-80
2023/05/28 08:39:53;;;;;;;17.83;4.72;;;;;;;;;;5049151;28;20075;-80
2023/05/28 08:42:21;;;;;;;14.65;5.20;;;;;;;;;;5029423;28;20043;-79
2023/05/28 08:44:48;;;;;;;20.75;5.82;;;;;;;;;;5061787;28;20036;-80
2023/05/28 08:47:14;;;;;;;14.20;4.45;;;;;;;;;;5066575;28;22031;-80
2023/05/28 08:49:53;;;;;;;10.48;4.35;;;;;;;;;;5040559;28;20044;-79
2023/05/28 08:52:23;;;;;;;13.25;4.63;;;;;;;;;;5065580;28;20094;-79
2023/05/28 08:54:49;;;;;;;13.30;4.65;;;;;;;;;;5066725;28;20124;-79
2023/05/28 08:57:16;;;;;;;12.52;4.80;;;;;;;;;;5079023;28;20047;-80
2023/05/28 08:59:42;;;;;;;15.07;5.28;;;;;;;;;;5085276;28;20028;-82
2023/05/28 09:02:11;;;;;;;12.02;4.95;;;;;;;;;;5060149;28;20043;-80
2023/05/28 09:04:37;;;;;;;15.15;5.20;;;;;;;;;;5092089;28;20086;-79
2023/05/28 09:07:05;;;;;;;10.90;4.85;;;;;;;;;;5093166;28;20040;-79
2023/05/28 09:09:32;;;;;;;12.85;5.35;;;;;;;;;;5062902;28;20056;-81
2023/05/28 09:12:08;;;;;;;17.50;5.45;;;;;;;;;;5078105;28;20040;-84
2023/05/28 09:14:42;;;;;;;15.77;5.40;;;;;;;;;;5090396;28;20055;-83
2023/05/28 09:17:13;;;;;;;13.68;5.25;;;;;;;;;;5089252;28;20056;-84
2023/05/28 09:19:39;;;;;;;15.88;5.15;;;;;;;;;;5092505;28;20036;-83
2023/05/28 09:22:05;;;;;;;14.43;5.35;;;;;;;;;;5081291;28;20124;-81
2023/05/28 09:24:33;;;;;;;12.98;4.97;;;;;;;;;;5052336;28;20044;-80
2023/05/28 09:27:00;;;;;;;13.00;5.13;;;;;;;;;;5072687;28;20046;-79
2023/05/28 09:29:27;;;;;;;10.15;4.78;;;;;;;;;;5081900;28;20047;-78
2023/05/28 09:32:00;;;;;;;12.15;5.13;;;;;;;;;;5049755;28;20048;-79
2023/05/28 09:34:30;;;;;;;9.87;4.30;;;;;;;;;;5069561;28;20040;-79
2023/05/28 09:37:03;;;;;;;13.00;4.38;;;;;;;;;;5067656;28;20044;-79
2023/05/28 09:39:30;;;;;;;13.50;4.78;;;;;;;;;;5068029;28;20137;-79
2023/05/28 09:42:04;;;;;;;16.05;4.95;;;;;;;;;;5065549;28;20074;-79
2023/05/28 09:47:46;;;;;;;;;;;;;;;;;;5076768;28;20100;-78
2023/05/28 09:50:12;;;;;;;12.52;4.63;;;;;;;;;;5052493;28;21911;-78
2023/05/28 09:52:40;;;;;;;10.85;4.63;;;;;;;;;;5047987;28;20040;-78
2023/05/28 09:55:08;;;;;;;14.13;5.53;;;;;;;;;;5049227;28;20055;-79
2023/05/28 09:57:37;;;;;;;11.10;4.70;;;;;;;;;;5081741;28;20067;-80
2023/05/28 10:00:20;;;;;;;9.23;3.80;;;;;;;;;;5063517;28;20161;-79
2023/05/28 10:03:01;;;;;;;11.10;4.38;;;;;;;;;;5047837;28;20040;-78
2023/05/28 10:05:29;;;;;;;7.85;4.15;;;;;;;;;;5064927;28;20044;-79
2023/05/28 10:07:57;;;;;;;11.68;4.22;;;;;;;;;;5065651;28;20050;-80
2023/05/28 10:10:23;;;;;;;8.90;4.20;;;;;;;;;;5063166;28;20048;-79
2023/05/28 10:12:54;;;;;;;10.40;4.15;;;;;;;;;;5072380;28;20563;-79
2023/05/28 10:15:21;;;;;;;9.85;4.20;;;;;;;;;;5074041;28;20105;-79
2023/05/28 10:17:48;;;;;;;8.57;3.83;;;;;;;;;;5072909;28;20052;-80
2023/05/28 10:20:35;;;;;;;11.25;4.50;;;;;;;;;;5071068;28;20054;-78
2023/05/28 10:23:02;;;;;;;8.30;4.57;;;;;;;;;;5048578;28;20069;-79
2023/05/28 10:25:31;;;;;;;6.72;3.45;;;;;;;;;;5049884;28;20691;-79
2023/05/28 10:28:04;;;;;;;8.23;3.60;;;;;;;;;;5065776;28;20039;-79
2023/05/28 10:30:42;;;;;;;7.97;3.55;;;;;;;;;;5068050;28;20039;-81
2023/05/28 10:33:09;;;;;;;8.32;3.45;;;;;;;;;;5054052;28;20539;-79
2023/05/28 10:35:38;;;;;;;9.63;4.25;;;;;;;;;;5070547;28;20523;-78
2023/05/28 10:38:07;;;;;;;9.57;4.13;;;;;;;;;;5066549;28;20093;-79
2023/05/28 10:40:39;;;;;;;7.13;3.25;;;;;;;;;;5048128;28;20055;-80
2023/05/28 10:43:06;;;;;;;10.52;3.95;;;;;;;;;;5064112;28;20044;-81
2023/05/28 10:45:36;;;;;;;11.32;3.78;;;;;;;;;;5067388;28;20048;-79
2023/05/28 10:48:02;;;;;;;6.88;3.25;;;;;;;;;;5048260;28;20036;-78
2023/05/28 10:50:28;;;;;;;7.80;3.05;;;;;;;;;;5069549;28;20136;-79
2023/05/28 10:53:07;;;;;;;8.32;3.58;;;;;;;;;;5056023;28;20419;-79
2023/05/28 10:55:47;;;;;;;10.02;3.80;;;;;;;;;;5053514;28;20048;-80
2023/05/28 10:58:38;;;;;;;8.93;3.58;;;;;;;;;;5067492;28;20044;-80
2023/05/28 11:01:05;;;;;;;8.25;3.78;;;;;;;;;;5053651;28;20059;-80
2023/05/28 11:03:41;;;;;;;8.80;3.85;;;;;;;;;;5053089;28;20051;-79
2023/05/28 11:06:08;;;;;;;12.77;3.88;;;;;;;;;;5049025;28;20101;-80
2023/05/28 11:08:50;;;;;;;;;;;;;;;;;;;;;
2023/05/28 11:11:17;;;;;;;8.02;3.13;;;;;;;;;;5064255;28;20051;-73
2023/05/28 11:13:43;;;;;;;9.85;3.30;;;;;;;;;;5057650;28;20051;-74
2023/05/28 11:16:13;;;;;;;10.27;3.75;;;;;;;;;;5063933;28;20110;-73
2023/05/28 11:18:39;;;;;;;11.60;3.78;;;;;;;;;;5061004;28;20724;-75
2023/05/28 11:21:09;;;;;;;11.50;3.45;;;;;;;;;;5038102;28;20050;-74
2023/05/28 11:23:39;;;;;;;11.00;3.45;;;;;;;;;;5057529;28;20050;-74
2023/05/28 11:26:06;;;;;;;12.30;4.07;;;;;;;;;;5045025;28;20172;-73
2023/05/28 11:28:32;;;;;;;7.20;3.03;;;;;;;;;;5060250;28;20044;-75
2023/05/28 11:30:59;;;;;;;9.02;3.45;;;;;;;;;;5060886;28;20785;-74
2023/05/28 11:33:30;;;;;;;10.52;3.60;;;;;;;;;;5041112;28;21797;-74
2023/05/28 11:35:56;;;;;;;8.93;3.30;;;;;;;;;;5059958;28;20044;-74
2023/05/28 11:38:22;;;;;;;12.98;3.88;;;;;;;;;;5060396;28;20163;-73
2023/05/28 11:40:48;;;;;;;8.65;3.03;;;;;;;;;;5061159;28;20044;-74
2023/05/28 11:43:14;;;;;;;10.63;3.55;;;;;;;;;;5058973;28;20039;-74
2023/05/28 11:45:41;;;;;;;8.15;3.22;;;;;;;;;;5056248;28;20113;-74
2023/05/28 11:48:13;;;;;;;7.57;3.10;;;;;;;;;;5058157;28;20773;-74
2023/05/28 11:50:39;;;;;;;11.45;3.97;;;;;;;;;;5060317;28;20047;-74
2023/05/28 11:53:08;;;;;;;11.10;4.10;;;;;;;;;;5064386;28;20598;-75
2023/05/28 11:55:34;;;;;;;11.80;3.35;;;;;;;;;;5042677;28;20056;-74
2023/05/28 11:58:00;;;;;;;9.13;2.70;;;;;;;;;;5036869;28;21034;-74
2023/05/28 12:00:32;;;;;;;12.43;4.03;;;;;;;;;;5041551;28;20036;-74
2023/05/28 12:02:58;;;;;;;9.80;3.13;;;;;;;;;;5063587;28;20078;-74
2023/05/28 12:05:24;;;;;;;11.27;3.90;;;;;;;;;;5059824;28;20040;-74
2023/05/28 12:07:54;;;;;;;12.25;3.22;;;;;;;;;;5058958;28;20040;-78
2023/05/28 12:10:22;;;;;;;12.40;3.60;;;;;;;;;;5058794;28;20400;-78
2023/05/28 12:12:53;;;;;;;12.85;3.47;;;;;;;;;;5038635;28;20808;-78
2023/05/28 12:15:29;;;;;;;11.95;3.30;;;;;;;;;;5059294;28;20119;-78
2023/05/28 12:18:02;;;;;;;16.75;3.42;;;;;;;;;;5061765;28;20052;-78
2023/05/28 12:20:33;;;;;;;11.90;3.30;;;;;;;;;;5061158;28;20043;-78
2023/05/28 12:23:07;;;;;;;10.18;3.30;;;;;;;;;;5056176;28;20048;-78
2023/05/28 12:25:47;;;;;;;14.50;3.03;;;;;;;;;;5057826;28;20044;-78
2023/05/28 12:28:17;;;;;;;15.55;3.47;;;;;;;;;;5063163;28;20040;-79
2023/05/28 12:30:49;;;;;;;10.32;3.50;;;;;;;;;;5051397;28;20061;-79
2023/05/28 12:33:15;;;;;;;14.43;3.55;;;;;;;;;;5064712;28;21585;-79
2023/05/28 12:35:41;;;;;;;9.25;3.58;;;;;;;;;;5059530;28;20040;-78
2023/05/28 12:38:08;;;;;;;13.23;4.18;;;;;;;;;;5030637;28;20109;-79
2023/05/28 12:40:34;;;;;;;20.30;3.47;;;;;;;;;;5075129;28;20094;-79
2023/05/28 12:43:00;;;;;;;15.32;4.13;;;;;;;;;;5063979;28;20076;-79
2023/05/28 12:45:27;;;;;;;13.27;4.30;;;;;;;;;;5066875;28;20527;-81
2023/05/28 12:47:53;;;;;;;12.50;3.17;;;;;;;;;;5067566;28;20040;-80
2023/05/28 12:50:20;;;;;;;16.55;4.90;;;;;;;;;;5063117;28;20055;-78
2023/05/28 12:52:46;;;;;;;12.10;3.50;;;;;;;;;;5047051;28;20040;-79
2023/05/28 12:55:12;;;;;;;11.23;3.67;;;;;;;;;;5046157;28;20048;-78
2023/05/28 12:57:39;;;;;;;13.50;3.42;;;;;;;;;;5060828;28;20059;-78
2023/05/28 13:00:14;;;;;;;10.60;3.30;;;;;;;;;;5064953;28;20047;-79
2023/05/28 13:02:41;;;;;;;12.07;4.25;;;;;;;;;;5059859;28;20048;-77
2023/05/28 13:05:07;;;;;;;14.75;3.80;;;;;;;;;;5065563;28;20040;-79
2023/05/28 13:07:33;;;;;;;9.43;3.50;;;;;;;;;;5064987;28;20070;-79
2023/05/28 13:09:59;;;;;;;10.00;3.28;;;;;;;;;;5068802;28;20044;-78
2023/05/28 13:12:25;;;;;;;11.40;3.92;;;;;;;;;;5070839;28;20036;-77
2023/05/28 13:14:51;;;;;;;11.95;3.65;;;;;;;;;;5068307;28;20067;-79
2023/05/28 13:17:19;;;;;;;10.35;3.80;;;;;;;;;;5066545;28;20051;-78
2023/05/28 13:19:46;;;;;;;8.70;3.20;;;;;;;;;;5065293;28;20055;-78
2023/05/28 13:22:13;;;;;;;10.57;3.72;;;;;;;;;;5044652;28;20055;-78
2023/05/28 13:24:39;;;;;;;10.73;3.40;;;;;;;;;;5066113;28;20516;-79
2023/05/28 13:27:06;;;;;;;7.50;2.92;;;;;;;;;;5030006;28;20032;-78
2023/05/28 13:29:32;;;;;;;12.30;3.40;;;;;;;;;;5063122;28;20044;-79
2023/05/28 13:31:58;;;;;;;10.15;3.45;;;;;;;;;;5064651;28;20048;-78
2023/05/28 13:34:24;;;;;;;9.70;3.92;;;;;;;;;;5066099;28;20036;-78
2023/05/28 13:36:51;;;;;;;8.93;3.38;;;;;;;;;;5066865;28;21984;-78
2023/05/28 13:39:18;;;;;;;15.25;3.65;;;;;;;;;;5063212;28;20044;-77
2023/05/28 13:41:45;;;;;;;14.98;3.97;;;;;;;;;;5067786;28;20044;-78
2023/05/28 13:44:13;;;;;;;13.15;4.03;;;;;;;;;;5058525;28;20079;-79
2023/05/28 13:46:39;;;;;;;15.57;4.22;;;;;;;;;;5064360;28;20051;-79
2023/05/28 13:49:05;;;;;;;13.07;4.40;;;;;;;;;;5065408;28;20051;-79
2023/05/28 13:51:32;;;;;;;10.85;3.53;;;;;;;;;;5074123;28;20051;-79
2023/05/28 13:53:58;;;;;;;15.40;4.22;;;;;;;;;;5072311;28;20044;-79
2023/05/28 13:56:24;;;;;;;13.02;3.75;;;;;;;;;;5045672;28;20595;-79
2023/05/28 13:58:50;;;;;;;14.75;4.13;;;;;;;;;;5060286;28;20066;-80
2023/05/28 14:01:16;;;;;;;9.32;3.30;;;;;;;;;;5064425;28;20097;-78
2023/05/28 14:03:45;;;;;;;13.80;4.25;;;;;;;;;;5062766;28;20040;-78
2023/05/28 14:06:11;;;;;;;10.90;3.17;;;;;;;;;;5071959;28;20059;-79
2023/05/28 14:08:37;;;;;;;11.80;3.58;;;;;;;;;;5072070;28;20170;-79
2023/05/28 14:11:03;;;;;;;8.23;3.45;;;;;;;;;;5066735;28;20155;-79
2023/05/28 14:13:31;;;;;;;14.38;4.53;;;;;;;;;;5062833;28;20054;-79
2023/05/28 14:16:00;;;;;;;10.48;3.95;;;;;;;;;;5059864;28;20050;-79
2023/05/28 14:18:26;;;;;;;9.55;3.35;;;;;;;;;;5044793;28;20452;-79
2023/05/28 14:20:53;;;;;;;10.52;3.60;;;;;;;;;;5058874;28;20047;-79
2023/05/28 14:23:19;;;;;;;10.45;3.97;;;;;;;;;;5067339;28;20042;-79
2023/05/28 14:25:45;;;;;;;14.15;3.92;;;;;;;;;;5065871;28;20056;-78
2023/05/28 14:28:11;;;;;;;10.57;3.78;;;;;;;;;;5066945;28;20785;-79
2023/05/28 14:30:37;;;;;;;10.48;3.38;;;;;;;;;;5068690;28;20040;-78
2023/05/28 14:33:03;;;;;;;9.05;3.80;;;;;;;;;;5065796;28;20165;-79
2023/05/28 14:35:30;;;;;;;16.65;3.75;;;;;;;;;;5066927;28;20121;-77
2023/05/28 14:37:56;;;;;;;12.98;4.00;;;;;;;;;;5066795;28;20076;-79